Time;durP1;ratioP1;P1;durP2;ratioP2;P2;SDS_P1;SDS_P2;PMS_P1;PMS_P2;Temp;Humidity;BMP_temperature;BMP_pressure;BME280_temperature;BME280_humidity;BME280_pressure;Samples;Min_cycle;Max_cycle;Signal;HPM_P1;HPM_P2
2022/05/21 00:01:53;;;;;;;;;6.50;6.00;;;;;18.72;88.95;102043.38;5077639;28;45361;-76
2022/05/21 00:04:19;;;;;;;;;8.50;6.00;;;;;18.69;88.86;102035.41;5078057;28;45326;-77
2022/05/21 00:06:45;;;;;;;;;8.00;7.50;;;;;18.65;89.33;102039.69;5077992;27;45228;-78
2022/05/21 00:09:12;;;;;;;;;6.00;5.75;;;;;18.64;89.27;102045.78;5077621;28;45283;-78
2022/05/21 00:11:39;;;;;;;;;3.25;3.25;;;;;18.61;89.64;102029.91;5077816;28;45449;-77
2022/05/21 00:14:06;;;;;;;;;5.75;3.00;;;;;18.66;90.03;102040.56;5077739;28;45468;-75
2022/05/21 00:16:32;;;;;;;;;4.75;4.25;;;;;18.67;90.56;102038.00;5078135;28;45796;-77
2022/05/21 00:18:58;;;;;;;;;6.00;4.00;;;;;18.67;91.54;102035.38;5077418;28;46056;-77
2022/05/21 00:21:24;;;;;;;;;4.75;4.75;;;;;18.64;92.10;102035.28;5059350;28;45835;-78
2022/05/21 00:23:50;;;;;;;;;4.00;4.00;;;;;18.61;93.28;102035.16;5078227;28;45318;-78
2022/05/21 00:26:17;;;;;;;;;5.25;4.25;;;;;18.59;93.82;102035.97;5077383;28;45568;-74
2022/05/21 00:28:45;;;;;;;;;4.00;4.00;;;;;18.55;94.19;102035.88;5059180;28;47008;-76
2022/05/21 00:31:14;;;;;;;;;6.00;3.50;;;;;18.52;94.74;102043.63;5077160;28;45727;-74
2022/05/21 00:33:42;;;;;;;;;6.00;5.00;;;;;18.50;95.39;102050.59;5077376;28;45249;-74
2022/05/21 00:36:09;;;;;;;;;8.25;4.00;;;;;18.45;96.25;102040.78;5077484;28;45288;-76
2022/05/21 00:38:36;;;;;;;;;4.00;4.00;;;;;18.43;96.53;102047.72;5077331;28;45379;-75
2022/05/21 00:41:04;;;;;;;;;3.00;3.00;;;;;18.38;96.90;102056.31;5058883;28;45772;-75
2022/05/21 00:43:52;;;;;;;;;4.00;3.00;;;;;18.39;96.80;102051.97;5059217;28;45291;-76
2022/05/21 00:46:24;;;;;;;;;4.75;3.00;;;;;18.36;96.92;102038.75;5077865;28;45322;-74
2022/05/21 00:49:08;;;;;;;;;3.00;3.00;;;;;18.32;97.14;102042.09;5077685;28;46486;-77
2022/05/21 00:51:41;;;;;;;;;3.00;3.00;;;;;18.29;96.31;102047.25;5058792;28;45786;-76
2022/05/21 00:54:09;;;;;;;;;3.00;3.00;;;;;18.22;97.10;102044.44;5077243;28;45288;-74
2022/05/21 00:56:41;;;;;;;;;2.00;2.00;;;;;18.21;97.38;102036.53;5077343;28;45574;-75
2022/05/21 01:01:56;;;;;;;;;3.50;2.00;;;;;18.11;97.73;102037.94;5077328;28;45356;-77
2022/05/21 01:04:24;;;;;;;;;4.00;3.00;;;;;18.06;98.30;102042.16;5077180;28;45364;-77
2022/05/21 01:06:52;;;;;;;;;3.00;3.00;;;;;18.03;100.00;102035.03;5077493;28;45308;-74
2022/05/21 01:09:18;;;;;;;;;6.50;5.00;;;;;18.04;100.00;102044.69;5077190;27;46060;-74
2022/05/21 01:11:44;;;;;;;;;3.00;2.50;;;;;18.06;100.00;102042.16;5076969;28;45316;-77
2022/05/21 01:14:12;;;;;;;;;4.75;2.50;;;;;18.05;99.90;102036.00;5076835;28;45245;-77
2022/05/21 01:16:38;;;;;;;;;4.50;3.75;;;;;18.07;99.86;102038.69;5077156;28;45363;-76
2022/05/21 01:19:08;;;;;;;;;4.00;3.00;;;;;18.06;100.00;102040.41;5076547;27;45378;-75
2022/05/21 01:21:36;;;;;;;;;2.50;2.50;;;;;18.03;99.74;102035.03;5058365;28;45745;-74
2022/05/21 01:24:06;;;;;;;;;3.00;3.00;;;;;18.04;99.48;102041.19;5076650;28;45304;-76
2022/05/21 01:26:34;;;;;;;;;6.25;5.00;;;;;17.99;99.80;102038.44;5058522;28;45573;-76
2022/05/21 01:29:03;;;;;;;;;4.00;2.75;;;;;17.95;100.00;102044.34;5076460;28;45418;-76
2022/05/21 01:31:32;;;;;;;;;4.75;3.00;;;;;17.94;100.00;102043.47;5076317;28;45292;-74
2022/05/21 01:33:59;;;;;;;;;5.00;3.75;;;;;17.96;100.00;102033.03;5076257;28;45403;-74
2022/05/21 01:36:25;;;;;;;;;3.75;3.75;;;;;17.95;100.00;102037.41;5058432;28;45583;-75
2022/05/21 01:38:51;;;;;;;;;2.75;2.75;;;;;17.93;100.00;102039.06;5057595;28;48233;-78
2022/05/21 01:41:17;;;;;;;;;5.00;3.00;;;;;17.94;100.00;102042.56;5076844;28;45325;-78
2022/05/21 01:46:27;;;;;;;;;4.50;2.75;;;;;17.92;100.00;102039.03;5076949;28;45311;-78
2022/05/21 01:48:53;;;;;;;;;4.50;2.75;;;;;17.93;100.00;102039.06;5075876;28;45415;-77
2022/05/21 01:51:19;;;;;;;;;2.00;2.00;;;;;17.90;100.00;102040.69;5076759;28;45761;-77
2022/05/21 01:53:45;;;;;;;;;3.50;3.50;;;;;17.88;100.00;102039.75;5076522;28;45369;-78
2022/05/21 01:56:13;;;;;;;;;3.25;2.75;;;;;17.84;100.00;102030.91;5076434;28;45248;-77
2022/05/21 01:58:39;;;;;;;;;4.00;3.00;;;;;17.83;100.00;102034.34;5076163;28;46608;-77
2022/05/21 02:01:06;;;;;;;;;3.00;2.25;;;;;17.79;100.00;102033.38;5075872;28;45354;-78
2022/05/21 02:03:32;;;;;;;;;2.25;2.25;;;;;17.78;100.00;102028.97;5076484;28;45435;-78
2022/05/21 02:05:58;;;;;;;;;3.25;3.25;;;;;17.81;100.00;102032.53;5076347;28;45580;-77
2022/05/21 02:08:24;;;;;;;;;3.00;3.00;;;;;17.80;100.00;102018.53;5076055;28;45889;-78
2022/05/21 02:10:51;;;;;;;;;2.25;2.25;;;;;17.77;100.00;102027.19;5076520;27;45333;-78
2022/05/21 02:13:31;;;;;;;;;4.75;3.50;;;;;17.79;100.00;102024.59;5076107;28;45243;-75
2022/05/21 02:15:57;;;;;;;;;3.50;3.50;;;;;17.81;100.00;102029.91;5075952;28;45467;-75
2022/05/21 02:18:23;;;;;;;;;3.75;3.75;;;;;17.79;100.00;102027.22;5076036;28;45543;-73
2022/05/21 02:20:51;;;;;;;;;3.00;3.00;;;;;17.76;100.00;102033.25;5076291;28;45507;-75
2022/05/21 02:23:17;;;;;;;;;7.00;3.50;;;;;17.75;100.00;102028.84;5076166;28;45412;-73
2022/05/21 02:25:43;;;;;;;;;3.00;3.00;;;;;17.77;100.00;102036.75;5076124;28;45279;-79
2022/05/21 02:28:09;;;;;;;;;5.25;3.00;;;;;17.79;100.00;102040.31;5075687;28;45562;-76
2022/05/21 02:30:36;;;;;;;;;2.00;2.00;;;;;17.80;100.00;102031.63;5075839;28;45718;-76
2022/05/21 02:33:02;;;;;;;;;3.50;3.50;;;;;17.84;100.00;102032.63;5076039;28;45372;-77
2022/05/21 02:35:27;;;;;;;;;4.25;3.00;;;;;17.86;100.00;102033.56;5076245;28;45575;-76
2022/05/21 02:40:37;;;;;;;;;3.25;2.50;;;;;17.91;100.00;102030.25;5075709;28;45306;-75
2022/05/21 02:43:03;;;;;;;;;3.75;3.75;;;;;17.93;100.00;102039.06;5075302;28;45379;-75
2022/05/21 02:45:30;;;;;;;;;3.75;2.25;;;;;17.92;100.00;102031.16;5076023;28;45561;-74
2022/05/21 02:47:57;;;;;;;;;4.00;3.00;;;;;17.93;100.00;102036.44;5075333;28;45342;-74
2022/05/21 02:50:32;;;;;;;;;2.00;2.00;;;;;17.91;100.00;102030.25;5077889;28;45326;-74
2022/05/21 02:53:00;;;;;;;;;3.00;3.00;;;;;17.85;100.00;102024.81;5079104;28;45350;-76
2022/05/21 02:55:26;;;;;;;;;2.25;2.00;;;;;17.84;100.00;102032.63;5079376;28;45341;-76
2022/05/21 02:57:52;;;;;;;;;4.00;3.00;;;;;17.85;100.00;102031.78;5077629;27;45408;-74
2022/05/21 03:00:23;;;;;;;;;4.00;3.00;;;;;17.84;100.00;102036.16;5061369;28;45771;-74
2022/05/21 03:02:49;;;;;;;;;2.00;2.00;;;;;17.84;100.00;102036.16;5079540;28;45276;-74
2022/05/21 03:05:16;;;;;;;;;3.00;3.00;;;;;17.82;100.00;102035.19;5079087;27;45331;-75
2022/05/21 03:07:44;;;;;;;;;4.00;3.00;;;;;17.79;100.00;102041.22;5078899;28;46198;-75
2022/05/21 03:10:22;;;;;;;;;3.00;3.00;;;;;17.80;100.00;102042.09;5077131;28;45478;-77
2022/05/21 03:12:55;;;;;;;;;4.00;4.00;;;;;17.73;100.00;102041.00;5079292;28;45316;-74
2022/05/21 03:15:37;;;;;;;;;3.00;3.00;;;;;17.67;100.00;102039.88;5079316;28;45292;-74
2022/05/21 03:18:06;;;;;;;;;2.00;1.75;;;;;17.62;100.00;102031.88;5078366;28;45445;-75
2022/05/21 03:20:32;;;;;;;;;3.25;3.25;;;;;17.59;100.00;102031.78;5078889;28;45687;-74
2022/05/21 03:22:57;;;;;;;;;2.75;2.75;;;;;17.57;100.00;102029.09;5078670;28;45295;-75
2022/05/21 03:25:24;;;;;;;;;4.00;2.00;;;;;17.54;100.00;102029.00;5079073;28;45493;-75
2022/05/21 03:27:51;;;;;;;;;3.50;3.00;;;;;17.51;100.00;102034.13;5078639;28;45355;-77
2022/05/21 03:30:19;;;;;;;;;3.50;2.75;;;;;17.49;100.00;102036.66;5078570;28;45613;-76
2022/05/21 03:32:45;;;;;;;;;2.25;2.25;;;;;17.52;100.00;102048.09;5078520;28;45314;-75
2022/05/21 03:35:13;;;;;;;;;2.00;2.00;;;;;17.51;100.00;102041.97;5078589;28;45350;-77
2022/05/21 03:37:40;;;;;;;;;2.00;2.00;;;;;17.54;100.00;102043.81;5078562;28;46224;-77
2022/05/21 03:40:09;;;;;;;;;2.50;2.00;;;;;17.57;100.00;102046.53;5078152;28;45185;-77
2022/05/21 03:42:36;;;;;;;;;2.50;1.00;;;;;17.58;100.00;102046.59;5078480;28;45304;-77
2022/05/21 03:45:02;;;;;;;;;3.00;2.00;;;;;17.61;100.00;102035.31;5078650;28;45216;-74
2022/05/21 03:47:28;;;;;;;;;3.50;2.50;;;;;17.67;100.00;102043.41;5078096;28;45454;-75
2022/05/21 03:49:54;;;;;;;;;1.00;1.00;;;;;17.72;100.00;102035.72;5059891;28;45324;-75
2022/05/21 03:52:20;;;;;;;;;3.50;2.00;;;;;17.72;99.54;102035.72;5078681;28;45341;-74
2022/05/21 03:54:47;;;;;;;;;2.00;2.00;;;;;17.73;98.10;102037.50;5078490;28;45541;-74
2022/05/21 03:57:15;;;;;;;;;4.25;2.00;;;;;17.76;97.72;102045.47;5077716;28;46199;-74
2022/05/21 03:59:42;;;;;;;;;2.00;2.00;;;;;17.78;96.93;102049.00;5077931;28;45318;-74
2022/05/21 04:02:09;;;;;;;;;2.00;2.00;;;;;17.76;96.74;102051.59;5076709;28;45235;-74
2022/05/21 04:04:35;;;;;;;;;1.50;1.00;;;;;17.75;95.96;102049.81;5078358;28;45592;-74
2022/05/21 04:07:01;;;;;;;;;4.50;3.00;;;;;17.73;95.71;102051.47;5077633;27;45298;-74
2022/05/21 04:09:30;;;;;;;;;5.00;4.00;;;;;17.76;95.25;102054.19;5076602;28;45730;-74
2022/05/21 04:11:56;;;;;;;;;7.25;6.00;;;;;17.79;94.63;102040.31;5077699;28;45367;-74
2022/05/21 04:14:27;;;;;;;;;8.25;4.00;;;;;17.79;94.27;102038.59;5078089;28;45349;-77
2022/05/21 04:16:58;;;;;;;;;5.00;4.25;;;;;17.84;94.17;102037.84;5077289;28;45467;-77
2022/05/21 04:19:25;;;;;;;;;5.00;4.00;;;;;17.86;93.92;102051.91;5076590;28;45413;-75
2022/05/21 04:21:52;;;;;;;;;7.00;5.00;;;;;17.87;93.41;102054.56;5078053;28;45504;-75
2022/05/21 04:24:18;;;;;;;;;5.00;5.00;;;;;17.87;93.67;102046.69;5078222;28;45615;-76
2022/05/21 04:26:45;;;;;;;;;6.50;3.75;;;;;17.88;93.21;102050.22;5077376;28;45369;-77
2022/05/21 04:29:12;;;;;;;;;5.00;3.50;;;;;17.89;92.41;102058.13;5058792;27;45474;-77
2022/05/21 04:31:38;;;;;;;;;4.00;3.00;;;;;17.89;92.09;102049.41;5077558;28;45442;-77
2022/05/21 04:34:05;;;;;;;;;4.50;3.50;;;;;17.90;91.34;102051.19;5077706;28;45366;-77
2022/05/21 04:36:31;;;;;;;;;2.00;2.00;;;;;17.93;91.40;102061.75;5077460;28;45463;-77
2022/05/21 04:38:58;;;;;;;;;3.75;2.00;;;;;17.94;90.57;102047.81;5077104;28;45386;-77
2022/05/21 04:41:28;;;;;;;;;4.25;0.75;;;;;17.95;90.78;102045.25;5077493;28;45311;-76
2022/05/21 04:43:55;;;;;;;;;2.75;2.00;;;;;17.96;90.27;102046.13;5077509;27;45308;-77
2022/05/21 04:46:24;;;;;;;;;3.00;3.00;;;;;17.98;90.51;102046.25;5077136;28;45317;-76
2022/05/21 04:48:50;;;;;;;;;1.25;1.00;;;;;17.97;90.42;102039.22;5077633;28;45837;-76
2022/05/21 04:51:17;;;;;;;;;1.25;1.25;;;;;17.98;90.42;102041.88;5077128;28;45367;-77
2022/05/21 04:53:44;;;;;;;;;5.00;1.25;;;;;17.98;90.26;102044.50;5077614;28;45259;-76
2022/05/21 04:56:10;;;;;;;;;1.50;1.00;;;;;18.01;89.87;102041.09;5076583;28;45327;-77
2022/05/21 04:58:36;;;;;;;;;3.00;2.00;;;;;18.03;89.52;102042.03;5077107;28;45287;-76
2022/05/21 05:01:04;;;;;;;;;2.00;1.25;;;;;18.02;88.83;102045.50;5076876;28;45558;-76
2022/05/21 05:03:30;;;;;;;;;4.00;2.00;;;;;18.04;89.83;102049.06;5077493;28;45397;-76
2022/05/21 05:05:57;;;;;;;;;4.50;3.25;;;;;18.06;91.73;102044.78;5076577;28;45387;-77
2022/05/21 05:08:23;;;;;;;;;3.00;3.00;;;;;18.08;92.88;102048.34;5077101;28;45669;-76
2022/05/21 05:10:50;;;;;;;;;3.50;3.25;;;;;18.07;93.14;102036.06;5077378;28;45248;-76
2022/05/21 05:13:17;;;;;;;;;4.00;3.75;;;;;18.08;93.67;102043.09;5076987;28;45236;-77
2022/05/21 05:15:47;;;;;;;;;3.00;3.00;;;;;18.07;94.62;102049.16;5076465;28;46149;-75
2022/05/21 05:18:17;;;;;;;;;4.25;3.00;;;;;18.08;92.43;102053.56;5078649;27;45730;-76
2022/05/21 05:20:43;;;;;;;;;3.00;3.00;;;;;18.07;91.95;102057.03;5076581;28;45462;-77
2022/05/21 05:23:10;;;;;;;;;4.00;3.50;;;;;18.07;92.50;102051.78;5075393;28;45672;-77
2022/05/21 05:25:36;;;;;;;;;2.75;2.75;;;;;18.08;92.52;102053.56;5073086;28;45449;-76
2022/05/21 05:28:03;;;;;;;;;3.75;2.75;;;;;18.10;92.48;102049.25;5075714;28;45525;-74
2022/05/21 05:30:29;;;;;;;;;3.50;2.50;;;;;18.09;92.17;102048.38;5076072;28;45443;-74
2022/05/21 05:32:55;;;;;;;;;4.00;2.50;;;;;18.13;92.13;102038.00;5057328;28;45578;-82
2022/05/21 05:35:22;;;;;;;;;7.25;5.00;;;;;18.13;92.55;102038.00;5057395;27;47260;-82
2022/05/21 05:37:47;;;;;;;;;5.00;4.00;;;;;18.14;93.17;102029.31;5065074;27;46023;-84
2022/05/21 05:40:19;;;;;;;;;4.75;3.00;;;;;18.15;93.46;102034.59;5079634;27;45521;-81
2022/05/21 05:42:45;;;;;;;;;3.25;1.50;;;;;18.13;92.45;102041.50;5077279;28;45246;-89
2022/05/21 05:45:12;;;;;;;;;3.50;3.50;;;;;18.13;92.91;102038.00;5083092;28;45367;-83
2022/05/21 05:47:38;;;;;;;;;2.25;2.25;;;;;18.14;93.53;102039.78;5079385;27;45446;-86
2022/05/21 05:50:05;;;;;;;;;3.00;3.00;;;;;18.16;93.25;102035.47;5076063;27;45485;-86
2022/05/21 05:52:30;;;;;;;;;3.00;3.00;;;;;18.18;92.80;102037.31;5076941;28;46756;-85
2022/05/21 05:54:56;;;;;;;;;6.50;4.25;;;;;18.18;92.87;102039.94;5075624;27;45969;-84
2022/05/21 05:57:23;;;;;;;;;4.00;4.00;;;;;18.20;94.08;102043.47;5058468;28;45405;-77
2022/05/21 05:59:50;;;;;;;;;6.50;5.75;;;;;18.20;94.94;102043.47;5087541;27;45348;-88
2022/05/21 06:05:08;;;;;;;;;5.75;4.50;;;;;18.17;95.36;102058.22;5080170;27;45806;-85
2022/05/21 06:07:39;;;;;;;;;5.00;4.25;;;;;18.18;94.74;102046.91;5080772;28;45454;-86
2022/05/21 06:10:06;;;;;;;;;5.00;5.00;;;;;18.20;91.90;102039.97;5064085;27;45634;-82
2022/05/21 06:12:32;;;;;;;;;4.25;2.00;;;;;18.20;89.70;102040.84;5078441;28;45450;-80
2022/05/21 06:14:59;;;;;;;;;2.50;1.50;;;;;18.22;88.18;102040.94;5042308;28;46781;-80
2022/05/21 06:17:25;;;;;;;;;2.00;2.00;;;;;18.25;87.12;102044.53;5075351;27;45331;-83
2022/05/21 06:19:52;;;;;;;;;4.00;3.00;;;;;18.28;86.27;102048.97;5076650;27;45280;-83
2022/05/21 06:22:18;;;;;;;;;4.00;1.50;;;;;18.30;86.02;102049.94;5075838;28;45673;-86
2022/05/21 06:24:43;;;;;;;;;4.00;2.00;;;;;18.32;86.14;102052.59;5076515;28;45996;-81
2022/05/21 06:27:09;;;;;;;;;4.25;2.25;;;;;18.33;85.77;102055.28;5079131;28;45426;-83
2022/05/21 06:29:37;;;;;;;;;2.50;2.50;;;;;18.36;86.27;102047.50;5079072;27;45329;-81
2022/05/21 06:32:04;;;;;;;;;4.00;2.00;;;;;18.39;86.40;102044.09;5079048;27;45388;-81
2022/05/21 06:34:31;;;;;;;;;4.50;2.00;;;;;18.42;86.33;102054.66;5078963;28;45871;-80
2022/05/21 06:37:03;;;;;;;;;5.00;3.00;;;;;18.45;86.37;102051.28;5072483;27;45605;-80
2022/05/21 06:39:31;;;;;;;;;6.25;3.50;;;;;18.50;86.45;102047.97;5059866;28;45433;-85
2022/05/21 06:41:56;;;;;;;;;3.75;3.50;;;;;18.56;85.39;102047.25;5070429;27;45220;-84
2022/05/21 06:44:23;;;;;;;;;3.25;3.25;;;;;18.59;85.08;102049.97;5083637;27;45537;-79
2022/05/21 06:46:49;;;;;;;;;4.00;3.25;;;;;18.61;84.19;102052.66;5084672;27;45819;-81
2022/05/21 06:49:15;;;;;;;;;2.75;2.25;;;;;18.63;83.96;102053.56;5081413;27;45307;-80
2022/05/21 06:51:40;;;;;;;;;3.00;3.00;;;;;18.63;83.64;102059.72;5081313;27;45296;-78
2022/05/21 06:54:06;;;;;;;;;3.75;2.50;;;;;18.62;83.31;102057.94;5085161;27;45342;-75
2022/05/21 06:56:31;;;;;;;;;4.00;4.00;;;;;18.66;83.27;102053.66;5080390;28;45841;-76
2022/05/21 06:58:57;;;;;;;;;2.00;2.00;;;;;18.70;83.51;102047.69;5079152;28;45493;-75
2022/05/21 07:01:23;;;;;;;;;4.25;3.25;;;;;18.73;82.44;102047.78;5079112;28;45327;-80
2022/05/21 07:03:48;;;;;;;;;2.75;2.00;;;;;18.74;82.20;102049.53;5078727;27;46226;-79
2022/05/21 07:08:58;;;;;;;;;3.00;3.00;;;;;18.80;80.70;102059.34;5078456;28;45269;-80
2022/05/21 07:11:23;;;;;;;;;3.00;3.00;;;;;18.78;80.30;102058.44;5083702;28;45217;-80
2022/05/21 07:13:49;;;;;;;;;2.25;2.25;;;;;18.78;80.10;102055.81;5079613;27;45730;-80
2022/05/21 07:16:15;;;;;;;;;5.75;2.00;;;;;18.79;79.24;102058.47;5059961;28;45334;-80
2022/05/21 07:18:40;;;;;;;;;2.00;2.00;;;;;18.81;78.82;102058.50;5078559;28;45231;-80
2022/05/21 07:21:10;;;;;;;;;1.50;1.00;;;;;18.82;76.47;102055.03;5059955;28;45441;-83
2022/05/21 07:23:37;;;;;;;;;2.00;2.00;;;;;18.88;76.27;102066.63;5077102;27;46854;-81
2022/05/21 07:26:02;;;;;;;;;2.00;2.00;;;;;18.94;75.56;102059.81;5078193;27;45853;-81
2022/05/21 07:28:28;;;;;;;;;2.00;2.00;;;;;18.97;74.06;102059.91;5078282;27;45374;-80
2022/05/21 07:30:53;;;;;;;;;1.75;1.50;;;;;18.99;74.38;102061.75;5081701;27;45654;-78
2022/05/21 07:33:21;;;;;;;;;1.00;1.00;;;;;19.05;74.08;102068.00;5078235;27;45470;-80
2022/05/21 07:35:47;;;;;;;;;1.00;1.00;;;;;19.10;74.04;102059.44;5076451;28;45824;-79
2022/05/21 07:38:14;;;;;;;;;2.50;1.50;;;;;19.14;73.57;102057.78;5078133;28;45397;-81
2022/05/21 07:40:42;;;;;;;;;1.00;1.00;;;;;19.20;73.88;102054.44;5077966;28;45505;-81
2022/05/21 07:43:10;;;;;;;;;0.25;0.00;;;;;19.23;73.26;102060.66;5077766;27;46010;-79
2022/05/21 07:45:38;;;;;;;;;2.00;1.00;;;;;19.22;73.08;102065.88;5077256;28;45861;-81
2022/05/21 07:48:09;;;;;;;;;0.50;0.50;;;;;19.17;71.97;102053.50;5077425;28;45415;-81
2022/05/21 07:50:36;;;;;;;;;2.00;0.00;;;;;19.20;73.04;102052.72;5078323;28;45331;-80
2022/05/21 07:53:02;;;;;;;;;2.25;1.00;;;;;19.24;72.60;102049.31;5076514;28;46028;-79
2022/05/21 07:55:28;;;;;;;;;1.25;1.25;;;;;19.26;72.11;102049.38;5076187;27;45364;-78
2022/05/21 07:57:53;;;;;;;;;1.00;1.00;;;;;19.31;72.53;102048.66;5076115;28;45394;-79
2022/05/21 08:00:19;;;;;;;;;1.00;1.00;;;;;19.35;71.21;102052.28;5077124;28;45493;-77
2022/05/21 08:02:45;;;;;;;;;1.75;1.75;;;;;19.36;70.86;102056.69;5058283;28;46125;-76
2022/05/21 08:05:12;;;;;;;;;1.00;1.00;;;;;19.36;70.63;102059.31;5076882;27;45478;-77
2022/05/21 08:07:39;;;;;;;;;1.00;1.00;;;;;19.37;70.32;102054.94;5077510;27;45410;-79
2022/05/21 08:10:06;;;;;;;;;2.00;1.00;;;;;19.40;70.06;102048.03;5077865;27;45339;-79
2022/05/21 08:12:31;;;;;;;;;3.50;1.00;;;;;19.42;68.54;102054.22;5077295;28;46489;-80
2022/05/21 08:14:57;;;;;;;;;0.00;0.00;;;;;19.40;68.87;102050.66;5077797;28;45612;-79
2022/05/21 08:17:22;;;;;;;;;0.75;0.75;;;;;19.44;69.29;102052.53;5077801;27;45399;-79
2022/05/21 08:19:48;;;;;;;;;0.00;0.00;;;;;19.52;68.42;102051.84;5078356;28;45465;-79
2022/05/21 08:27:41;;;;;;;;;1.00;0.75;;;;;19.59;67.41;102040.66;5077012;28;46609;-82
2022/05/21 08:30:08;;;;;;;;;0.00;0.00;;;;;19.59;67.29;102038.91;5075177;28;45570;-79
2022/05/21 08:32:34;;;;;;;;;3.00;1.50;;;;;19.58;66.90;102037.13;5056682;28;46864;-81
2022/05/21 08:35:00;;;;;;;;;2.00;0.00;;;;;19.56;67.30;102041.44;5075479;28;45464;-81
2022/05/21 08:37:27;;;;;;;;;1.50;1.00;;;;;19.55;67.90;102036.16;5076508;28;45260;-82
2022/05/21 08:39:53;;;;;;;;;0.00;0.00;;;;;19.56;67.49;102046.72;5078954;27;45225;-80
2022/05/21 08:42:42;;;;;;;;;1.75;1.75;;;;;19.61;67.60;102037.22;5077510;28;46179;-80
2022/05/21 08:45:22;;;;;;;;;1.75;1.75;;;;;19.67;67.48;102036.50;5076647;28;45481;-80
2022/05/21 08:48:03;;;;;;;;;1.50;1.50;;;;;19.70;66.00;102033.06;5076075;28;45358;-81
2022/05/21 08:50:33;;;;;;;;;0.00;0.00;;;;;19.66;66.36;102029.47;5076544;28;45426;-80
2022/05/21 08:53:10;;;;;;;;;1.00;1.00;;;;;19.65;66.18;102033.81;5076474;28;45241;-82
2022/05/21 08:55:39;;;;;;;;;2.25;0.75;;;;;19.63;66.19;102032.91;5075253;28;45625;-81
2022/05/21 08:58:35;;;;;;;;;0.75;0.75;;;;;19.63;66.04;102037.25;5074974;27;45507;-81
2022/05/21 09:01:01;;;;;;;;;0.25;0.25;;;;;19.59;66.96;102035.41;5050425;28;45373;-81
2022/05/21 09:03:28;;;;;;;;;0.75;0.75;;;;;19.58;66.63;102024.00;5075342;28;47551;-81
2022/05/21 09:06:10;;;;;;;;;2.00;0.50;;;;;19.62;67.23;102024.97;5074896;28;45539;-81
2022/05/21 09:08:53;;;;;;;;;2.00;1.00;;;;;19.66;67.33;102024.22;5075211;28;45411;-80
2022/05/21 09:11:34;;;;;;;;;1.00;1.00;;;;;19.65;67.45;102027.69;5077187;28;45340;-82
2022/05/21 09:14:08;;;;;;;;;1.00;1.00;;;;;19.69;67.58;102021.69;5074893;27;45424;-82
2022/05/21 09:16:55;;;;;;;;;1.00;1.00;;;;;19.71;68.24;102008.56;5076419;27;45669;-81
2022/05/21 09:19:34;;;;;;;;;1.00;1.00;;;;;19.75;68.25;102003.44;5076927;28;45320;-81
2022/05/21 09:22:02;;;;;;;;;2.00;1.25;;;;;19.83;68.34;102007.97;5076206;27;45441;-80
2022/05/21 09:24:45;;;;;;;;;3.00;2.50;;;;;19.85;67.80;102006.28;5075882;28;46536;-81
2022/05/21 09:27:38;;;;;;;;;2.75;0.25;;;;;19.83;68.38;101995.75;5075752;28;46233;-81
2022/05/21 09:30:28;;;;;;;;;0.50;0.00;;;;;19.83;68.89;102005.34;5075888;27;45351;-80
2022/05/21 09:32:56;;;;;;;;;2.00;0.50;;;;;19.85;68.87;101987.91;5076216;27;45386;-80
2022/05/21 09:35:28;;;;;;;;;2.00;2.00;;;;;19.87;69.27;101987.09;5077883;28;46033;-79
2022/05/21 09:37:55;;;;;;;;;0.25;0.25;;;;;19.89;69.18;101990.66;5064403;28;45303;-81
2022/05/21 09:40:34;;;;;;;;;1.00;1.00;;;;;19.91;69.17;101988.97;5079824;27;45374;-81
2022/05/21 09:46:37;;;;;;;;;1.00;1.00;;;;;20.00;70.35;101983.06;5077622;27;45778;-81
2022/05/21 09:49:14;;;;;;;;;1.25;1.25;;;;;20.03;70.33;101984.88;5042162;28;45297;-82
2022/05/21 09:51:40;;;;;;;;;1.25;1.25;;;;;20.07;69.94;101982.34;5076562;28;45358;-83
2022/05/21 09:54:27;;;;;;;;;3.25;1.75;;;;;20.08;69.47;101985.88;5076814;27;45544;-82
2022/05/21 09:56:55;;;;;;;;;3.00;2.00;;;;;20.08;69.73;101984.13;5080987;28;45982;-81
2022/05/21 09:59:33;;;;;;;;;2.25;1.25;;;;;20.09;70.61;101971.88;5081377;28;45456;-81
2022/05/21 10:02:01;;;;;;;;;2.00;2.00;;;;;20.12;70.63;101981.59;5081803;28;45265;-81
2022/05/21 10:04:43;;;;;;;;;3.00;2.25;;;;;20.13;70.09;101967.59;5078451;27;45386;-81
2022/05/21 10:13:08;;;;;;;;;4.75;3.25;;;;;20.22;70.77;101973.06;5076508;27;45253;-83
2022/05/21 10:15:43;;;;;;;;;3.00;2.00;;;;;20.26;70.74;101974.91;5076027;28;45546;-82
2022/05/21 10:18:26;;;;;;;;;2.00;2.00;;;;;20.30;71.54;101973.25;5075763;28;45384;-82
2022/05/21 10:20:57;;;;;;;;;3.00;2.00;;;;;20.34;71.50;101964.56;5077280;27;45798;-80
2022/05/21 10:23:51;;;;;;;;;2.00;2.00;;;;;20.37;70.25;101964.63;5058634;28;45475;-78
2022/05/21 10:26:35;;;;;;;;;2.50;2.00;;;;;20.42;70.09;101963.88;5080362;28;45328;-77
2022/05/21 10:29:32;;;;;;;;;3.50;2.75;;;;;20.46;69.93;101967.47;5082910;27;45291;-82
2022/05/21 10:32:19;;;;;;;;;2.00;1.00;;;;;20.51;69.82;101970.19;5080341;28;45628;-81
2022/05/21 10:34:53;;;;;;;;;2.75;2.00;;;;;20.49;69.78;101978.06;5077588;27;45433;-85
2022/05/21 10:37:35;;;;;;;;;1.00;1.00;;;;;20.48;69.86;101980.66;5077963;28;45569;-84
2022/05/21 10:40:32;;;;;;;;;2.00;2.00;;;;;20.46;69.70;101961.34;5078106;27;45453;-90
2022/05/21 10:43:25;;;;;;;;;3.00;2.25;;;;;20.45;71.22;101968.31;5079002;28;45356;-94
2022/05/21 10:46:25;;;;;;;;;2.00;1.00;;;;;20.50;70.49;101957.91;5062670;28;45295;-87
2022/05/21 10:48:51;;;;;;;;;3.00;2.50;;;;;20.53;70.31;101953.59;5077074;28;45323;-78
2022/05/21 10:51:36;;;;;;;;;2.75;2.75;;;;;20.60;70.98;101956.38;5078323;27;46585;-86
2022/05/21 10:54:17;;;;;;;;;4.00;4.00;;;;;20.66;69.87;101952.13;5084731;27;46421;-82
2022/05/21 10:56:52;;;;;;;;;1.25;1.00;;;;;20.71;69.89;101950.47;5063256;28;45306;-81
2022/05/21 11:00:09;;;;;;;;;3.00;1.75;;;;;20.80;69.54;101960.34;5078595;28;45304;-82
2022/05/21 11:02:59;;;;;;;;;2.00;2.00;;;;;20.83;69.81;101944.63;5052561;28;46015;-80
2022/05/21 11:06:03;;;;;;;;;1.25;1.25;;;;;20.88;69.91;101939.44;5058947;28;45477;-88
2022/05/21 11:09:02;;;;;;;;;2.00;2.00;;;;;20.98;70.21;101932.59;5056397;28;45327;-85
2022/05/21 11:11:50;;;;;;;;;2.00;2.00;;;;;21.00;68.50;101920.38;5061575;28;45340;-83
2022/05/21 11:14:26;;;;;;;;;1.50;1.00;;;;;21.06;68.51;101928.38;5041421;28;46706;-84
2022/05/21 11:17:35;;;;;;;;;4.50;2.00;;;;;21.17;67.41;101932.09;5060698;28;45396;-81
2022/05/21 11:20:26;;;;;;;;;3.00;2.50;;;;;21.30;67.79;101916.53;5080341;27;45381;-81
2022/05/21 11:22:58;;;;;;;;;5.00;2.00;;;;;21.40;68.13;101917.59;5065127;28;45755;-80
2022/05/21 11:25:34;;;;;;;;;2.00;2.00;;;;;21.49;68.11;101915.09;5059717;28;46207;-81
2022/05/21 11:28:05;;;;;;;;;3.00;2.00;;;;;21.57;67.37;101923.16;5059168;28;45423;-80
2022/05/21 11:30:31;;;;;;;;;2.00;2.00;;;;;21.58;67.62;101919.66;5059544;28;45261;-84
2022/05/21 11:38:38;;;;;;;;;4.00;2.75;;;;;21.79;66.79;101912.13;5058950;28;45311;-82
2022/05/21 11:41:24;;;;;;;;;5.50;4.25;;;;;21.95;66.46;101902.72;5058515;28;45370;-83
2022/05/21 11:47:07;;;;;;;;;26.25;24.25;;;;;22.32;65.58;101896.16;5062009;28;45609;-82
2022/05/21 11:49:44;;;;;;;;;57.75;45.50;;;;;22.39;63.97;101893.63;5063793;28;45798;-82
2022/05/21 11:52:34;;;;;;;;;2.75;2.75;;;;;22.44;63.41;101895.50;5082695;28;45337;-84
2022/05/21 11:55:11;;;;;;;;;2.75;2.50;;;;;22.49;64.25;101881.50;5060545;28;45309;-85
2022/05/21 11:57:39;;;;;;;;;2.25;2.25;;;;;22.52;63.69;101884.16;5075692;28;45439;-88
2022/05/21 12:00:16;;;;;;;;;2.00;2.00;;;;;22.56;63.06;101872.78;5081247;28;45637;-85
2022/05/21 12:02:53;;;;;;;;;3.00;3.00;;;;;22.68;62.56;101874.66;5080751;28;45306;-85
2022/05/21 12:05:33;;;;;;;;;4.50;3.00;;;;;22.77;61.02;101880.94;5079850;27;45429;-85
2022/05/21 12:08:27;;;;;;;;;2.00;2.00;;;;;22.79;60.92;101871.25;5079455;27;45248;-84
2022/05/21 12:10:57;;;;;;;;;4.25;2.00;;;;;22.81;60.63;101873.06;5042799;28;45993;-88
2022/05/21 12:13:40;;;;;;;;;2.00;2.00;;;;;22.93;60.46;101871.44;5088828;28;45457;-88
2022/05/21 12:16:21;;;;;;;;;28.50;27.50;;;;;22.98;59.09;101864.41;5090628;27;45308;-86
2022/05/21 12:18:54;;;;;;;;;6.25;6.00;;;;;22.99;60.44;101853.88;5078385;28;46386;-88